sensor_id;sensor_type;location;lat;lon;timestamp;temperature;humidity
38209;DHT22;24016;52.102;11.584;2022-08-11T00:01:50;15.50;99.90
38209;DHT22;24016;52.102;11.584;2022-08-11T00:04:17;15.40;99.90
38209;DHT22;24016;52.102;11.584;2022-08-11T00:06:44;15.40;99.90
38209;DHT22;24016;52.102;11.584;2022-08-11T00:09:15;15.30;99.90
38209;DHT22;24016;52.102;11.584;2022-08-11T00:11:48;15.30;99.90
38209;DHT22;24016;52.102;11.584;2022-08-11T00:14:23;15.20;99.90
38209;DHT22;24016;52.102;11.584;2022-08-11T00:17:03;15.20;99.90
38209;DHT22;24016;52.102;11.584;2022-08-11T00:19:32;15.20;99.90
38209;DHT22;24016;52.102;11.584;2022-08-11T00:21:58;15.20;99.90
38209;DHT22;24016;52.102;11.584;2022-08-11T00:24:35;15.20;99.90
38209;DHT22;24016;52.102;11.584;2022-08-11T00:27:01;15.10;99.90
38209;DHT22;24016;52.102;11.584;2022-08-11T00:29:27;15.10;99.90
38209;DHT22;24016;52.102;11.584;2022-08-11T00:31:56;15.00;99.90
38209;DHT22;24016;52.102;11.584;2022-08-11T00:34:27;15.10;99.90
38209;DHT22;24016;52.102;11.584;2022-08-11T00:37:08;15.00;99.90
38209;DHT22;24016;52.102;11.584;2022-08-11T00:39:42;15.00;99.90
38209;DHT22;24016;52.102;11.584;2022-08-11T00:42:26;14.90;99.90
38209;DHT22;24016;52.102;11.584;2022-08-11T00:45:11;14.90;99.90
38209;DHT22;24016;52.102;11.584;2022-08-11T00:50:35;14.90;99.90
38209;DHT22;24016;52.102;11.584;2022-08-11T00:56:17;14.80;99.90
38209;DHT22;24016;52.102;11.584;2022-08-11T00:59:20;14.80;99.90
38209;DHT22;24016;52.102;11.584;2022-08-11T01:02:09;14.70;99.90
38209;DHT22;24016;52.102;11.584;2022-08-11T01:07:40;14.70;99.90
38209;DHT22;24016;52.102;11.584;2022-08-11T01:10:47;14.70;99.90
38209;DHT22;24016;52.102;11.584;2022-08-11T01:27:22;14.50;99.90
38209;DHT22;24016;52.102;11.584;2022-08-11T01:33:03;14.40;99.90
38209;DHT22;24016;52.102;11.584;2022-08-11T01:39:17;14.40;99.90
38209;DHT22;24016;52.102;11.584;2022-08-11T01:45:38;14.30;99.90
38209;DHT22;24016;52.102;11.584;2022-08-11T01:48:21;14.30;99.90
38209;DHT22;24016;52.102;11.584;2022-08-11T01:54:08;14.20;99.90
38209;DHT22;24016;52.102;11.584;2022-08-11T01:56:49;14.20;99.90
38209;DHT22;24016;52.102;11.584;2022-08-11T01:59:34;14.20;99.90
38209;DHT22;24016;52.102;11.584;2022-08-11T02:04:55;14.10;99.90
38209;DHT22;24016;52.102;11.584;2022-08-11T02:07:49;14.00;99.90
38209;DHT22;24016;52.102;11.584;2022-08-11T02:13:46;13.90;99.90
38209;DHT22;24016;52.102;11.584;2022-08-11T02:18:49;13.80;99.90
38209;DHT22;24016;52.102;11.584;2022-08-11T02:21:48;13.70;99.90
38209;DHT22;24016;52.102;11.584;2022-08-11T02:24:40;13.70;99.90
38209;DHT22;24016;52.102;11.584;2022-08-11T02:27:15;13.70;99.90
38209;DHT22;24016;52.102;11.584;2022-08-11T02:29:58;13.60;99.90
38209;DHT22;24016;52.102;11.584;2022-08-11T02:32:47;13.60;99.90
38209;DHT22;24016;52.102;11.584;2022-08-11T02:35:57;13.60;99.90
38209;DHT22;24016;52.102;11.584;2022-08-11T02:47:10;13.50;99.90
38209;DHT22;24016;52.102;11.584;2022-08-11T02:49:57;13.60;99.90
38209;DHT22;24016;52.102;11.584;2022-08-11T02:52:53;13.60;99.90
38209;DHT22;24016;52.102;11.584;2022-08-11T03:01:42;13.40;99.90
38209;DHT22;24016;52.102;11.584;2022-08-11T03:04:15;13.40;99.90
38209;DHT22;24016;52.102;11.584;2022-08-11T03:07:27;13.30;99.90
38209;DHT22;24016;52.102;11.584;2022-08-11T03:13:15;13.30;99.90
38209;DHT22;24016;52.102;11.584;2022-08-11T03:24:27;13.30;99.90
38209;DHT22;24016;52.102;11.584;2022-08-11T03:27:07;13.20;99.90
38209;DHT22;24016;52.102;11.584;2022-08-11T03:29:41;13.30;99.90
38209;DHT22;24016;52.102;11.584;2022-08-11T03:32:31;13.20;99.90
38209;DHT22;24016;52.102;11.584;2022-08-11T03:35:00;13.20;99.90
38209;DHT22;24016;52.102;11.584;2022-08-11T03:37:47;13.20;99.90
38209;DHT22;24016;52.102;11.584;2022-08-11T03:46:11;13.20;99.90
38209;DHT22;24016;52.102;11.584;2022-08-11T03:49:21;13.20;99.90
38209;DHT22;24016;52.102;11.584;2022-08-11T03:52:12;13.20;99.90
38209;DHT22;24016;52.102;11.584;2022-08-11T03:54:43;13.10;99.90
38209;DHT22;24016;52.102;11.584;2022-08-11T04:09:04;13.00;99.90
38209;DHT22;24016;52.102;11.584;2022-08-11T04:11:54;12.90;99.90
38209;DHT22;24016;52.102;11.584;2022-08-11T04:20:56;12.90;99.90
38209;DHT22;24016;52.102;11.584;2022-08-11T04:23:57;13.00;99.90
38209;DHT22;24016;52.102;11.584;2022-08-11T04:31:55;13.00;99.90
38209;DHT22;24016;52.102;11.584;2022-08-11T04:34:41;13.10;99.90
38209;DHT22;24016;52.102;11.584;2022-08-11T04:46:31;13.30;99.90
38209;DHT22;24016;52.102;11.584;2022-08-11T04:52:55;13.40;99.90
38209;DHT22;24016;52.102;11.584;2022-08-11T04:59:11;13.60;99.90
38209;DHT22;24016;52.102;11.584;2022-08-11T05:03:01;13.70;99.90
38209;DHT22;24016;52.102;11.584;2022-08-11T05:05:34;13.80;99.90
38209;DHT22;24016;52.102;11.584;2022-08-11T05:11:25;14.10;99.90
38209;DHT22;24016;52.102;11.584;2022-08-11T05:16:58;14.20;99.90
38209;DHT22;24016;52.102;11.584;2022-08-11T05:19:47;14.30;99.90
38209;DHT22;24016;52.102;11.584;2022-08-11T05:22:50;14.30;99.90
38209;DHT22;24016;52.102;11.584;2022-08-11T05:25:35;14.40;99.90
38209;DHT22;24016;52.102;11.584;2022-08-11T05:28:33;14.50;99.90
38209;DHT22;24016;52.102;11.584;2022-08-11T05:31:21;14.60;99.90
38209;DHT22;24016;52.102;11.584;2022-08-11T05:34:15;14.70;99.90
38209;DHT22;24016;52.102;11.584;2022-08-11T05:37:08;14.80;99.90
38209;DHT22;24016;52.102;11.584;2022-08-11T05:39:47;15.00;99.90
38209;DHT22;24016;52.102;11.584;2022-08-11T05:42:33;15.20;99.90
38209;DHT22;24016;52.102;11.584;2022-08-11T05:45:21;15.30;99.90
38209;DHT22;24016;52.102;11.584;2022-08-11T05:48:05;15.40;99.90
38209;DHT22;24016;52.102;11.584;2022-08-11T05:50:51;15.50;99.90
38209;DHT22;24016;52.102;11.584;2022-08-11T05:53:47;15.50;99.90
38209;DHT22;24016;52.102;11.584;2022-08-11T05:56:33;15.70;99.90
38209;DHT22;24016;52.102;11.584;2022-08-11T05:58:59;15.70;99.90
38209;DHT22;24016;52.102;11.584;2022-08-11T06:01:27;15.80;99.90
38209;DHT22;24016;52.102;11.584;2022-08-11T06:03:56;15.90;99.90
38209;DHT22;24016;52.102;11.584;2022-08-11T06:07:04;16.00;99.90
38209;DHT22;24016;52.102;11.584;2022-08-11T06:09:35;16.10;99.90
38209;DHT22;24016;52.102;11.584;2022-08-11T06:12:07;16.20;99.90
38209;DHT22;24016;52.102;11.584;2022-08-11T06:14:34;16.30;99.90
38209;DHT22;24016;52.102;11.584;2022-08-11T06:17:06;16.30;99.90
38209;DHT22;24016;52.102;11.584;2022-08-11T06:19:35;16.50;99.90
38209;DHT22;24016;52.102;11.584;2022-08-11T06:22:03;16.60;99.90
38209;DHT22;24016;52.102;11.584;2022-08-11T06:24:29;16.70;99.90
38209;DHT22;24016;52.102;11.584;2022-08-11T06:26:57;16.70;99.90
38209;DHT22;24016;52.102;11.584;2022-08-11T06:29:23;16.90;99.90
38209;DHT22;24016;52.102;11.584;2022-08-11T06:32:01;17.00;99.90
38209;DHT22;24016;52.102;11.584;2022-08-11T06:34:39;17.10;99.90
38209;DHT22;24016;52.102;11.584;2022-08-11T06:37:22;17.20;99.90
38209;DHT22;24016;52.102;11.584;2022-08-11T06:40:30;17.40;99.90
38209;DHT22;24016;52.102;11.584;2022-08-11T06:43:23;17.50;99.90
38209;DHT22;24016;52.102;11.584;2022-08-11T06:45:58;17.60;99.90
38209;DHT22;24016;52.102;11.584;2022-08-11T06:48:29;17.80;99.90
38209;DHT22;24016;52.102;11.584;2022-08-11T06:50:59;17.90;99.90
38209;DHT22;24016;52.102;11.584;2022-08-11T06:53:44;18.10;99.90
38209;DHT22;24016;52.102;11.584;2022-08-11T06:56:12;18.20;99.90
38209;DHT22;24016;52.102;11.584;2022-08-11T06:58:58;18.40;99.90
38209;DHT22;24016;52.102;11.584;2022-08-11T07:04:48;18.70;99.90
38209;DHT22;24016;52.102;11.584;2022-08-11T07:07:37;19.00;99.90
38209;DHT22;24016;52.102;11.584;2022-08-11T07:13:29;19.30;99.90
38209;DHT22;24016;52.102;11.584;2022-08-11T07:16:22;19.50;99.90
38209;DHT22;24016;52.102;11.584;2022-08-11T07:18:49;19.60;99.90
38209;DHT22;24016;52.102;11.584;2022-08-11T07:21:35;19.60;99.90
38209;DHT22;24016;52.102;11.584;2022-08-11T07:24:25;19.70;99.90
38209;DHT22;24016;52.102;11.584;2022-08-11T07:27:16;19.70;99.90
38209;DHT22;24016;52.102;11.584;2022-08-11T07:30:19;19.90;99.90
38209;DHT22;24016;52.102;11.584;2022-08-11T07:32:54;20.10;99.90
38209;DHT22;24016;52.102;11.584;2022-08-11T07:35:29;20.10;99.90
38209;DHT22;24016;52.102;11.584;2022-08-11T07:37:59;20.20;99.90
38209;DHT22;24016;52.102;11.584;2022-08-11T07:40:25;20.40;99.90
38209;DHT22;24016;52.102;11.584;2022-08-11T07:42:53;20.50;99.90
38209;DHT22;24016;52.102;11.584;2022-08-11T07:45:19;20.50;99.90
38209;DHT22;24016;52.102;11.584;2022-08-11T07:48:05;20.60;99.90
38209;DHT22;24016;52.102;11.584;2022-08-11T07:50:51;21.00;99.90
38209;DHT22;24016;52.102;11.584;2022-08-11T07:53:36;21.20;99.90
38209;DHT22;24016;52.102;11.584;2022-08-11T07:56:03;21.50;99.90
38209;DHT22;24016;52.102;11.584;2022-08-11T07:58:30;21.70;99.90
38209;DHT22;24016;52.102;11.584;2022-08-11T08:01:22;21.90;99.90
38209;DHT22;24016;52.102;11.584;2022-08-11T08:04:08;22.30;99.90
38209;DHT22;24016;52.102;11.584;2022-08-11T08:06:54;22.50;99.90
38209;DHT22;24016;52.102;11.584;2022-08-11T08:09:39;22.80;99.90
38209;DHT22;24016;52.102;11.584;2022-08-11T08:12:25;23.20;99.90
38209;DHT22;24016;52.102;11.584;2022-08-11T08:15:11;23.80;99.90
38209;DHT22;24016;52.102;11.584;2022-08-11T08:17:58;24.50;99.90
38209;DHT22;24016;52.102;11.584;2022-08-11T08:20:36;25.00;99.90
38209;DHT22;24016;52.102;11.584;2022-08-11T08:23:02;25.10;99.90
38209;DHT22;24016;52.102;11.584;2022-08-11T08:25:34;26.20;99.90
38209;DHT22;24016;52.102;11.584;2022-08-11T08:28:02;26.30;99.90
38209;DHT22;24016;52.102;11.584;2022-08-11T08:30:29;26.80;99.90
38209;DHT22;24016;52.102;11.584;2022-08-11T08:35:43;27.80;99.90
38209;DHT22;24016;52.102;11.584;2022-08-11T08:38:09;28.00;99.50
38209;DHT22;24016;52.102;11.584;2022-08-11T08:40:37;28.30;98.30
38209;DHT22;24016;52.102;11.584;2022-08-11T08:43:07;28.30;97.90
38209;DHT22;24016;52.102;11.584;2022-08-11T08:45:36;28.40;96.90
38209;DHT22;24016;52.102;11.584;2022-08-11T08:48:12;28.40;96.90
38209;DHT22;24016;52.102;11.584;2022-08-11T08:50:43;28.40;96.90
38209;DHT22;24016;52.102;11.584;2022-08-11T08:53:33;28.60;96.30
38209;DHT22;24016;52.102;11.584;2022-08-11T08:56:00;29.10;95.70
38209;DHT22;24016;52.102;11.584;2022-08-11T08:58:26;28.60;95.40
38209;DHT22;24016;52.102;11.584;2022-08-11T09:00:53;28.50;95.70
38209;DHT22;24016;52.102;11.584;2022-08-11T09:03:21;28.60;95.70
38209;DHT22;24016;52.102;11.584;2022-08-11T09:05:47;28.90;95.00
38209;DHT22;24016;52.102;11.584;2022-08-11T09:08:16;28.50;94.60
38209;DHT22;24016;52.102;11.584;2022-08-11T09:10:45;28.50;94.70
38209;DHT22;24016;52.102;11.584;2022-08-11T09:13:13;28.70;94.40
38209;DHT22;24016;52.102;11.584;2022-08-11T09:15:39;29.10;94.40
38209;DHT22;24016;52.102;11.584;2022-08-11T09:18:05;29.60;93.60
38209;DHT22;24016;52.102;11.584;2022-08-11T09:20:35;29.90;93.70
38209;DHT22;24016;52.102;11.584;2022-08-11T09:23:08;29.40;93.60
38209;DHT22;24016;52.102;11.584;2022-08-11T09:25:56;29.60;93.00
38209;DHT22;24016;52.102;11.584;2022-08-11T09:28:43;29.70;92.70
38209;DHT22;24016;52.102;11.584;2022-08-11T09:31:10;29.70;93.00
38209;DHT22;24016;52.102;11.584;2022-08-11T09:33:38;30.30;92.00
38209;DHT22;24016;52.102;11.584;2022-08-11T09:36:05;31.30;91.50
38209;DHT22;24016;52.102;11.584;2022-08-11T09:38:50;31.30;90.90
38209;DHT22;24016;52.102;11.584;2022-08-11T09:41:35;31.10;91.10
38209;DHT22;24016;52.102;11.584;2022-08-11T09:44:02;31.10;90.60
38209;DHT22;24016;52.102;11.584;2022-08-11T09:46:47;30.90;90.20
38209;DHT22;24016;52.102;11.584;2022-08-11T09:49:14;31.60;88.90
38209;DHT22;24016;52.102;11.584;2022-08-11T09:51:43;32.10;87.70
38209;DHT22;24016;52.102;11.584;2022-08-11T09:54:09;31.90;87.30
38209;DHT22;24016;52.102;11.584;2022-08-11T09:56:35;31.70;87.10
38209;DHT22;24016;52.102;11.584;2022-08-11T09:59:21;31.90;85.50
38209;DHT22;24016;52.102;11.584;2022-08-11T10:01:49;32.30;85.80
38209;DHT22;24016;52.102;11.584;2022-08-11T10:04:25;32.10;85.80
38209;DHT22;24016;52.102;11.584;2022-08-11T10:06:55;31.90;85.30
38209;DHT22;24016;52.102;11.584;2022-08-11T10:09:40;32.10;83.30
38209;DHT22;24016;52.102;11.584;2022-08-11T10:12:28;32.30;83.20
38209;DHT22;24016;52.102;11.584;2022-08-11T10:15:03;32.70;82.70
38209;DHT22;24016;52.102;11.584;2022-08-11T10:17:53;33.30;80.80
38209;DHT22;24016;52.102;11.584;2022-08-11T10:20:40;33.60;78.00
38209;DHT22;24016;52.102;11.584;2022-08-11T10:23:08;33.70;79.00
38209;DHT22;24016;52.102;11.584;2022-08-11T10:26:04;33.70;77.30
38209;DHT22;24016;52.102;11.584;2022-08-11T10:28:49;34.40;76.80
38209;DHT22;24016;52.102;11.584;2022-08-11T10:31:19;33.70;76.10
38209;DHT22;24016;52.102;11.584;2022-08-11T10:34:04;33.50;74.80
38209;DHT22;24016;52.102;11.584;2022-08-11T10:36:33;33.40;76.50
38209;DHT22;24016;52.102;11.584;2022-08-11T10:39:02;34.10;73.70
38209;DHT22;24016;52.102;11.584;2022-08-11T10:41:29;34.00;73.60
38209;DHT22;24016;52.102;11.584;2022-08-11T10:44:14;34.30;73.90
38209;DHT22;24016;52.102;11.584;2022-08-11T10:46:40;33.80;74.50
38209;DHT22;24016;52.102;11.584;2022-08-11T10:49:25;33.80;75.00
38209;DHT22;24016;52.102;11.584;2022-08-11T10:51:54;34.20;75.40
38209;DHT22;24016;52.102;11.584;2022-08-11T10:54:40;35.20;72.90
38209;DHT22;24016;52.102;11.584;2022-08-11T10:57:26;35.00;72.80
38209;DHT22;24016;52.102;11.584;2022-08-11T11:00:10;34.80;72.30
38209;DHT22;24016;52.102;11.584;2022-08-11T11:02:43;35.00;72.30
38209;DHT22;24016;52.102;11.584;2022-08-11T11:05:15;34.50;70.90
38209;DHT22;24016;52.102;11.584;2022-08-11T11:08:11;35.10;71.00
38209;DHT22;24016;52.102;11.584;2022-08-11T11:10:58;35.30;70.60
38209;DHT22;24016;52.102;11.584;2022-08-11T11:13:26;35.10;70.00
38209;DHT22;24016;52.102;11.584;2022-08-11T11:16:11;34.90;70.50
38209;DHT22;24016;52.102;11.584;2022-08-11T11:18:59;34.60;72.30
38209;DHT22;24016;52.102;11.584;2022-08-11T11:21:28;35.30;68.60
38209;DHT22;24016;52.102;11.584;2022-08-11T11:24:15;35.40;69.60
38209;DHT22;24016;52.102;11.584;2022-08-11T11:26:59;35.30;69.80
38209;DHT22;24016;52.102;11.584;2022-08-11T11:37:56;36.50;66.70
38209;DHT22;24016;52.102;11.584;2022-08-11T11:40:23;36.00;66.70
38209;DHT22;24016;52.102;11.584;2022-08-11T11:42:50;36.00;66.50
38209;DHT22;24016;52.102;11.584;2022-08-11T11:45:18;35.80;65.80
38209;DHT22;24016;52.102;11.584;2022-08-11T11:47:44;35.20;65.40
38209;DHT22;24016;52.102;11.584;2022-08-11T11:50:11;35.40;64.90
38209;DHT22;24016;52.102;11.584;2022-08-11T11:52:39;35.10;66.20
38209;DHT22;24016;52.102;11.584;2022-08-11T11:55:06;35.40;65.50
38209;DHT22;24016;52.102;11.584;2022-08-11T11:57:32;35.10;65.80
38209;DHT22;24016;52.102;11.584;2022-08-11T12:00:17;35.70;64.00
38209;DHT22;24016;52.102;11.584;2022-08-11T12:03:05;37.30;63.80
38209;DHT22;24016;52.102;11.584;2022-08-11T12:05:34;37.30;62.40
38209;DHT22;24016;52.102;11.584;2022-08-11T12:08:01;37.30;62.40
38209;DHT22;24016;52.102;11.584;2022-08-11T12:10:56;38.00;62.50
38209;DHT22;24016;52.102;11.584;2022-08-11T12:13:43;36.90;63.40
38209;DHT22;24016;52.102;11.584;2022-08-11T12:16:11;36.00;63.30
38209;DHT22;24016;52.102;11.584;2022-08-11T12:18:39;35.60;62.80
38209;DHT22;24016;52.102;11.584;2022-08-11T12:21:06;35.90;63.00
38209;DHT22;24016;52.102;11.584;2022-08-11T12:23:35;36.10;63.10
38209;DHT22;24016;52.102;11.584;2022-08-11T12:26:19;35.50;62.80
38209;DHT22;24016;52.102;11.584;2022-08-11T12:29:25;35.60;64.20
38209;DHT22;24016;52.102;11.584;2022-08-11T12:31:53;36.30;62.60
38209;DHT22;24016;52.102;11.584;2022-08-11T12:34:19;36.90;60.60
38209;DHT22;24016;52.102;11.584;2022-08-11T12:36:49;37.50;60.70
38209;DHT22;24016;52.102;11.584;2022-08-11T12:39:20;35.20;61.80
38209;DHT22;24016;52.102;11.584;2022-08-11T12:42:10;35.70;63.20
38209;DHT22;24016;52.102;11.584;2022-08-11T12:44:57;36.70;61.70
38209;DHT22;24016;52.102;11.584;2022-08-11T12:47:48;37.60;60.40
38209;DHT22;24016;52.102;11.584;2022-08-11T12:50:34;37.50;61.00
38209;DHT22;24016;52.102;11.584;2022-08-11T12:53:24;37.50;60.60
38209;DHT22;24016;52.102;11.584;2022-08-11T12:55:50;38.50;59.90
38209;DHT22;24016;52.102;11.584;2022-08-11T12:58:40;37.70;60.50
38209;DHT22;24016;52.102;11.584;2022-08-11T13:01:06;36.80;60.80
38209;DHT22;24016;52.102;11.584;2022-08-11T13:03:51;36.60;61.00
38209;DHT22;24016;52.102;11.584;2022-08-11T13:06:35;36.70;60.30
38209;DHT22;24016;52.102;11.584;2022-08-11T13:09:02;37.00;60.10
38209;DHT22;24016;52.102;11.584;2022-08-11T13:11:29;36.50;61.50
38209;DHT22;24016;52.102;11.584;2022-08-11T13:14:14;36.30;59.60
38209;DHT22;24016;52.102;11.584;2022-08-11T13:16:41;35.80;59.70
38209;DHT22;24016;52.102;11.584;2022-08-11T13:19:27;36.20;59.30
38209;DHT22;24016;52.102;11.584;2022-08-11T13:21:54;36.20;58.80
38209;DHT22;24016;52.102;11.584;2022-08-11T13:24:22;36.30;58.20
38209;DHT22;24016;52.102;11.584;2022-08-11T13:26:49;36.30;57.80
38209;DHT22;24016;52.102;11.584;2022-08-11T13:29:16;36.70;59.40
38209;DHT22;24016;52.102;11.584;2022-08-11T13:31:42;36.40;58.90
38209;DHT22;24016;52.102;11.584;2022-08-11T13:34:09;36.20;59.70
38209;DHT22;24016;52.102;11.584;2022-08-11T13:36:35;36.10;59.90
38209;DHT22;24016;52.102;11.584;2022-08-11T13:39:01;36.00;60.50
38209;DHT22;24016;52.102;11.584;2022-08-11T13:41:28;35.70;60.10
38209;DHT22;24016;52.102;11.584;2022-08-11T13:44:09;35.40;60.20
38209;DHT22;24016;52.102;11.584;2022-08-11T13:46:35;34.90;61.00
38209;DHT22;24016;52.102;11.584;2022-08-11T13:49:01;34.70;61.80
38209;DHT22;24016;52.102;11.584;2022-08-11T13:51:28;34.00;60.90
38209;DHT22;24016;52.102;11.584;2022-08-11T13:54:03;33.70;60.40
38209;DHT22;24016;52.102;11.584;2022-08-11T13:56:31;34.20;59.90
38209;DHT22;24016;52.102;11.584;2022-08-11T13:58:58;34.00;62.10
38209;DHT22;24016;52.102;11.584;2022-08-11T14:01:28;33.40;62.30
38209;DHT22;24016;52.102;11.584;2022-08-11T14:04:00;33.10;63.00
38209;DHT22;24016;52.102;11.584;2022-08-11T14:06:27;33.10;63.20
38209;DHT22;24016;52.102;11.584;2022-08-11T14:08:53;33.00;62.10
38209;DHT22;24016;52.102;11.584;2022-08-11T14:11:20;32.90;62.70
38209;DHT22;24016;52.102;11.584;2022-08-11T14:14:06;32.80;61.30
38209;DHT22;24016;52.102;11.584;2022-08-11T14:16:38;32.80;61.40
38209;DHT22;24016;52.102;11.584;2022-08-11T14:19:06;32.50;62.70
38209;DHT22;24016;52.102;11.584;2022-08-11T14:21:37;32.20;63.40
38209;DHT22;24016;52.102;11.584;2022-08-11T14:24:25;31.80;62.10
38209;DHT22;24016;52.102;11.584;2022-08-11T14:26:52;31.60;63.60
38209;DHT22;24016;52.102;11.584;2022-08-11T14:29:20;31.70;62.90
38209;DHT22;24016;52.102;11.584;2022-08-11T14:31:54;31.70;64.10
38209;DHT22;24016;52.102;11.584;2022-08-11T14:34:21;31.70;62.90
38209;DHT22;24016;52.102;11.584;2022-08-11T14:36:50;31.50;62.50
38209;DHT22;24016;52.102;11.584;2022-08-11T14:39:20;31.50;63.40
38209;DHT22;24016;52.102;11.584;2022-08-11T14:41:49;31.20;63.90
38209;DHT22;24016;52.102;11.584;2022-08-11T14:44:35;30.80;64.30
38209;DHT22;24016;52.102;11.584;2022-08-11T14:47:21;30.80;64.20
38209;DHT22;24016;52.102;11.584;2022-08-11T14:49:48;30.70;63.60
38209;DHT22;24016;52.102;11.584;2022-08-11T14:52:17;30.40;64.00
38209;DHT22;24016;52.102;11.584;2022-08-11T14:54:47;30.50;64.10
38209;DHT22;24016;52.102;11.584;2022-08-11T14:57:35;30.60;63.00
38209;DHT22;24016;52.102;11.584;2022-08-11T15:00:03;30.30;63.90
38209;DHT22;24016;52.102;11.584;2022-08-11T15:02:29;30.30;64.70
38209;DHT22;24016;52.102;11.584;2022-08-11T15:05:13;30.30;64.20
38209;DHT22;24016;52.102;11.584;2022-08-11T15:07:40;30.20;65.70
38209;DHT22;24016;52.102;11.584;2022-08-11T15:10:07;30.10;64.20
38209;DHT22;24016;52.102;11.584;2022-08-11T15:12:36;30.00;64.70
38209;DHT22;24016;52.102;11.584;2022-08-11T15:15:04;30.10;65.20
38209;DHT22;24016;52.102;11.584;2022-08-11T15:17:52;30.20;64.70
38209;DHT22;24016;52.102;11.584;2022-08-11T15:20:20;30.10;64.70
38209;DHT22;24016;52.102;11.584;2022-08-11T15:23:04;29.90;64.80
38209;DHT22;24016;52.102;11.584;2022-08-11T15:28:38;29.90;65.60
38209;DHT22;24016;52.102;11.584;2022-08-11T15:31:25;29.90;64.70
38209;DHT22;24016;52.102;11.584;2022-08-11T15:33:54;29.60;64.70
38209;DHT22;24016;52.102;11.584;2022-08-11T15:36:41;29.50;65.10
38209;DHT22;24016;52.102;11.584;2022-08-11T15:39:33;29.40;64.90
38209;DHT22;24016;52.102;11.584;2022-08-11T15:42:08;29.40;65.80
38209;DHT22;24016;52.102;11.584;2022-08-11T15:44:58;29.50;65.00
38209;DHT22;24016;52.102;11.584;2022-08-11T15:47:55;29.30;65.70
38209;DHT22;24016;52.102;11.584;2022-08-11T15:50:26;29.20;64.90
38209;DHT22;24016;52.102;11.584;2022-08-11T15:53:08;29.20;65.10
38209;DHT22;24016;52.102;11.584;2022-08-11T15:55:34;29.20;65.10
38209;DHT22;24016;52.102;11.584;2022-08-11T15:58:03;29.10;64.70
38209;DHT22;24016;52.102;11.584;2022-08-11T16:00:50;29.00;65.40
38209;DHT22;24016;52.102;11.584;2022-08-11T16:03:42;28.90;65.50
38209;DHT22;24016;52.102;11.584;2022-08-11T16:06:28;28.90;66.00
38209;DHT22;24016;52.102;11.584;2022-08-11T16:08:55;28.80;65.40
38209;DHT22;24016;52.102;11.584;2022-08-11T16:11:24;28.70;66.00
38209;DHT22;24016;52.102;11.584;2022-08-11T16:13:52;28.60;65.50
38209;DHT22;24016;52.102;11.584;2022-08-11T16:16:37;28.60;65.50
38209;DHT22;24016;52.102;11.584;2022-08-11T16:19:04;28.60;66.40
38209;DHT22;24016;52.102;11.584;2022-08-11T16:21:34;28.60;66.70
38209;DHT22;24016;52.102;11.584;2022-08-11T16:24:03;28.60;66.70
38209;DHT22;24016;52.102;11.584;2022-08-11T16:26:30;28.60;66.70
38209;DHT22;24016;52.102;11.584;2022-08-11T16:28:59;28.50;66.30
38209;DHT22;24016;52.102;11.584;2022-08-11T16:31:26;28.50;66.90
38209;DHT22;24016;52.102;11.584;2022-08-11T16:33:53;28.50;67.00
38209;DHT22;24016;52.102;11.584;2022-08-11T16:36:22;28.50;67.30
38209;DHT22;24016;52.102;11.584;2022-08-11T16:39:08;28.50;66.30
38209;DHT22;24016;52.102;11.584;2022-08-11T16:41:35;28.40;67.10
38209;DHT22;24016;52.102;11.584;2022-08-11T16:44:21;28.40;67.40
38209;DHT22;24016;52.102;11.584;2022-08-11T16:47:07;28.30;67.30
38209;DHT22;24016;52.102;11.584;2022-08-11T16:49:41;28.30;67.30
38209;DHT22;24016;52.102;11.584;2022-08-11T16:52:08;28.10;67.20
38209;DHT22;24016;52.102;11.584;2022-08-11T16:54:37;28.10;67.60
38209;DHT22;24016;52.102;11.584;2022-08-11T16:57:06;28.10;67.40
38209;DHT22;24016;52.102;11.584;2022-08-11T16:59:53;28.00;68.20
38209;DHT22;24016;52.102;11.584;2022-08-11T17:02:21;27.90;67.90
38209;DHT22;24016;52.102;11.584;2022-08-11T17:05:14;27.80;68.40
38209;DHT22;24016;52.102;11.584;2022-08-11T17:08:00;27.70;67.90
38209;DHT22;24016;52.102;11.584;2022-08-11T17:10:56;27.60;67.70
38209;DHT22;24016;52.102;11.584;2022-08-11T17:13:43;27.50;67.30
38209;DHT22;24016;52.102;11.584;2022-08-11T17:16:13;27.50;68.00
38209;DHT22;24016;52.102;11.584;2022-08-11T17:18:43;27.50;67.40
38209;DHT22;24016;52.102;11.584;2022-08-11T17:21:24;27.40;67.30
38209;DHT22;24016;52.102;11.584;2022-08-11T17:23:58;27.40;68.30
38209;DHT22;24016;52.102;11.584;2022-08-11T17:26:40;27.30;68.50
38209;DHT22;24016;52.102;11.584;2022-08-11T17:29:36;27.20;68.20
38209;DHT22;24016;52.102;11.584;2022-08-11T17:32:10;27.20;68.00
38209;DHT22;24016;52.102;11.584;2022-08-11T17:35:00;27.10;68.10
38209;DHT22;24016;52.102;11.584;2022-08-11T17:37:45;27.00;68.90
38209;DHT22;24016;52.102;11.584;2022-08-11T17:40:14;26.90;69.50
38209;DHT22;24016;52.102;11.584;2022-08-11T17:42:42;26.90;70.10
38209;DHT22;24016;52.102;11.584;2022-08-11T17:45:28;26.80;70.60
38209;DHT22;24016;52.102;11.584;2022-08-11T17:48:12;26.70;71.20
38209;DHT22;24016;52.102;11.584;2022-08-11T17:51:08;26.60;70.30
38209;DHT22;24016;52.102;11.584;2022-08-11T17:53:40;26.60;70.90
38209;DHT22;24016;52.102;11.584;2022-08-11T17:56:26;26.50;71.50
38209;DHT22;24016;52.102;11.584;2022-08-11T17:59:11;26.40;71.80
38209;DHT22;24016;52.102;11.584;2022-08-11T18:01:58;26.30;71.90
38209;DHT22;24016;52.102;11.584;2022-08-11T18:04:46;26.20;72.30
38209;DHT22;24016;52.102;11.584;2022-08-11T18:07:13;26.10;72.20
38209;DHT22;24016;52.102;11.584;2022-08-11T18:09:57;26.10;72.10
38209;DHT22;24016;52.102;11.584;2022-08-11T18:12:42;26.10;72.20
38209;DHT22;24016;52.102;11.584;2022-08-11T18:15:28;26.00;72.00
38209;DHT22;24016;52.102;11.584;2022-08-11T18:18:12;25.90;71.80
38209;DHT22;24016;52.102;11.584;2022-08-11T18:20:57;25.80;72.40
38209;DHT22;24016;52.102;11.584;2022-08-11T18:23:41;25.70;72.50
38209;DHT22;24016;52.102;11.584;2022-08-11T18:26:26;25.60;73.00
38209;DHT22;24016;52.102;11.584;2022-08-11T18:29:11;25.50;73.00
38209;DHT22;24016;52.102;11.584;2022-08-11T18:31:58;25.40;72.60
38209;DHT22;24016;52.102;11.584;2022-08-11T18:34:43;25.20;72.60
38209;DHT22;24016;52.102;11.584;2022-08-11T18:37:32;25.10;72.90
38209;DHT22;24016;52.102;11.584;2022-08-11T18:40:26;25.10;73.30
38209;DHT22;24016;52.102;11.584;2022-08-11T18:43:11;25.00;73.30
38209;DHT22;24016;52.102;11.584;2022-08-11T18:46:04;24.90;73.20